Terminal Aerodrome Forecast
Issued by NWS

Home | Current Version | Previous Version | Text Only | Print | Product List | Glossary On
Versions: 1 2 3 4 5 6 7 8 9 10 11 12 13 14 15 16 17 18 19 20 21 22 23 24 25 26 27 28 29 30 31 32 33 34 35 36
000
FTUS43 KDTX 211120
TAFPTK
TAF
KPTK 211120Z 2112/2212 15004KT P6SM BKN060 BKN200
     FM211400 18007KT P6SM SCT040 BKN150
     FM212300 14005KT P6SM SCT045 BKN200
     FM220800 VRB03KT 2SM BR SCT060 BKN200=

USA.gov is the U.S. government's official web portal to all federal, state and local government web resources and services.